createdAt,value
2023-05-22T00:02:21.254Z,17.42
2023-05-22T00:04:47.972Z,16.83
2023-05-22T00:07:15.946Z,16.17
2023-05-22T00:09:42.547Z,19.08
2023-05-22T00:12:09.378Z,15.73
2023-05-22T00:14:36.001Z,19.83
2023-05-22T00:17:02.613Z,19.10
2023-05-22T00:19:29.426Z,17.52
2023-05-22T00:21:56.126Z,21.60
2023-05-22T00:24:24.115Z,17.45
2023-05-22T00:26:50.734Z,17.80
2023-05-22T00:29:17.376Z,18.67
2023-05-22T00:31:44.093Z,20.05
2023-05-22T00:34:10.765Z,17.23
2023-05-22T00:36:37.451Z,19.70
2023-05-22T00:39:04.151Z,17.17
2023-05-22T00:41:32.659Z,19.10
2023-05-22T00:43:59.413Z,18.05
2023-05-22T00:46:26.149Z,18.30
2023-05-22T00:48:52.816Z,17.50
2023-05-22T00:51:21.220Z,19.65
2023-05-22T00:53:48.046Z,23.00
2023-05-22T00:56:15.512Z,16.77
2023-05-22T00:58:43.884Z,16.45
2023-05-22T01:01:11.459Z,21.13
2023-05-22T01:03:39.486Z,20.55
2023-05-22T01:06:06.677Z,18.17
2023-05-22T01:08:33.603Z,18.23
2023-05-22T01:11:04.546Z,20.05
2023-05-22T01:13:42.181Z,19.13
2023-05-22T01:16:17.673Z,18.48
2023-05-22T01:18:50.909Z,20.92
2023-05-22T01:21:24.416Z,18.83
2023-05-22T01:24:16.127Z,19.60
2023-05-22T01:27:14.430Z,21.45
2023-05-22T01:29:57.091Z,20.58
2023-05-22T01:32:27.068Z,20.20
2023-05-22T01:34:56.785Z,19.58
2023-05-22T01:37:24.665Z,22.75
2023-05-22T01:39:52.946Z,22.83
2023-05-22T01:42:19.682Z,20.08
2023-05-22T01:44:48.530Z,19.17
2023-05-22T01:47:15.611Z,20.27
2023-05-22T01:49:44.555Z,20.00
2023-05-22T01:52:20.381Z,22.48
2023-05-22T01:54:51.863Z,19.25
2023-05-22T01:57:21.813Z,22.00
2023-05-22T01:59:52.331Z,19.98
2023-05-22T02:02:21.094Z,21.63
2023-05-22T02:04:55.640Z,25.77
2023-05-22T02:07:22.737Z,19.17
2023-05-22T02:09:51.492Z,21.80
2023-05-22T02:12:18.772Z,21.48
2023-05-22T02:14:45.621Z,20.75
2023-05-22T02:17:12.579Z,24.08
2023-05-22T02:19:39.364Z,24.65
2023-05-22T02:22:07.374Z,21.63
2023-05-22T02:24:36.687Z,20.90
2023-05-22T02:27:03.466Z,24.13
2023-05-22T02:29:30.100Z,20.52
2023-05-22T02:31:56.896Z,22.00
2023-05-22T02:34:25.851Z,21.80
2023-05-22T02:36:52.545Z,21.95
2023-05-22T02:39:20.638Z,22.35
2023-05-22T02:41:47.201Z,22.02
2023-05-22T02:44:13.988Z,21.42
2023-05-22T02:46:40.659Z,22.65
2023-05-22T02:49:07.731Z,23.88
2023-05-22T02:51:34.402Z,25.40
2023-05-22T02:54:01.059Z,22.98
2023-05-22T02:56:29.041Z,22.58
2023-05-22T02:58:55.762Z,28.25
2023-05-22T03:01:22.411Z,23.20
2023-05-22T03:03:49.204Z,22.02
2023-05-22T03:06:16.076Z,19.63
2023-05-22T03:08:42.732Z,24.90
2023-05-22T03:11:10.041Z,24.92
2023-05-22T03:13:37.961Z,20.75
2023-05-22T03:16:05.329Z,23.15
2023-05-22T03:18:35.247Z,21.63
2023-05-22T03:21:01.820Z,24.55
2023-05-22T03:23:28.459Z,21.67
2023-05-22T03:25:55.142Z,28.00
2023-05-22T03:28:25.411Z,25.52
2023-05-22T03:30:53.378Z,21.33
2023-05-22T03:33:25.008Z,22.88
2023-05-22T03:35:51.627Z,24.33
2023-05-22T03:38:18.237Z,22.50
2023-05-22T03:40:44.864Z,26.67
2023-05-22T03:43:11.556Z,22.17
2023-05-22T03:45:39.109Z,27.75
2023-05-22T03:48:07.432Z,27.00
2023-05-22T03:50:34.146Z,24.58
2023-05-22T03:53:00.801Z,23.33
2023-05-22T03:55:27.425Z,24.63
2023-05-22T03:57:54.077Z,24.35
2023-05-22T04:00:20.800Z,23.15
2023-05-22T04:02:47.509Z,23.08
2023-05-22T04:05:16.142Z,22.60
2023-05-22T04:07:43.588Z,21.40
2023-05-22T04:10:11.096Z,24.23
2023-05-22T04:12:37.770Z,21.80
2023-05-22T04:15:05.168Z,22.55
2023-05-22T04:17:32.190Z,22.02
2023-05-22T04:19:58.824Z,23.48
2023-05-22T04:22:27.148Z,22.25
2023-05-22T04:24:53.746Z,25.25
2023-05-22T04:27:20.401Z,31.08
2023-05-22T04:29:46.979Z,25.83
2023-05-22T04:32:13.622Z,20.98
2023-05-22T04:34:40.271Z,22.08
2023-05-22T04:37:06.903Z,23.35
2023-05-22T04:39:34.846Z,26.65
2023-05-22T04:42:01.530Z,25.92
2023-05-22T04:44:28.131Z,26.30
2023-05-22T04:46:54.762Z,23.73
2023-05-22T04:49:21.428Z,25.55
2023-05-22T04:51:48.034Z,26.45
2023-05-22T04:54:14.659Z,27.20
2023-05-22T04:56:42.804Z,28.65
2023-05-22T04:59:09.689Z,27.80
2023-05-22T05:01:38.467Z,29.65
2023-05-22T05:04:05.346Z,31.50
2023-05-22T05:06:31.922Z,30.30
2023-05-22T05:08:58.507Z,30.65
2023-05-22T05:11:25.110Z,29.52
2023-05-22T05:13:53.090Z,31.70
2023-05-22T05:16:19.768Z,31.67
2023-05-22T05:18:46.512Z,31.20
2023-05-22T05:21:13.461Z,33.65
2023-05-22T05:23:40.079Z,31.48
2023-05-22T05:26:06.951Z,32.03
2023-05-22T05:28:33.713Z,32.42
2023-05-22T05:31:02.337Z,34.25
2023-05-22T05:33:47.811Z,31.60
2023-05-22T05:36:40.339Z,28.20
2023-05-22T05:39:07.298Z,31.13
2023-05-22T05:41:35.031Z,33.22
2023-05-22T05:44:06.646Z,40.35
2023-05-22T05:46:35.208Z,30.90
2023-05-22T05:49:06.890Z,37.88
2023-05-22T05:51:33.605Z,35.42
2023-05-22T05:54:00.271Z,31.98
2023-05-22T05:56:27.007Z,35.72
2023-05-22T05:58:54.219Z,35.05
2023-05-22T06:01:44.792Z,36.70
2023-05-22T06:04:18.302Z,34.47
2023-05-22T06:06:47.205Z,43.08
2023-05-22T06:09:13.810Z,35.40
2023-05-22T06:12:09.896Z,32.58
2023-05-22T06:14:36.660Z,34.75
2023-05-22T06:17:05.110Z,35.88
2023-05-22T06:19:31.919Z,33.33
2023-05-22T06:21:58.569Z,42.58
2023-05-22T06:24:25.153Z,34.78
2023-05-22T06:26:51.955Z,30.50
2023-05-22T06:29:18.672Z,34.20
2023-05-22T06:31:46.593Z,57.15
2023-05-22T06:34:17.360Z,31.95
2023-05-22T06:36:44.101Z,34.70
2023-05-22T06:39:10.783Z,29.75
2023-05-22T06:42:00.239Z,30.85
2023-05-22T06:44:43.855Z,31.80
2023-05-22T06:47:10.996Z,32.17
2023-05-22T06:49:39.063Z,32.35
2023-05-22T06:52:06.080Z,36.03
2023-05-22T06:54:33.354Z,35.22
2023-05-22T06:57:00.025Z,32.03
2023-05-22T06:59:27.797Z,37.88
2023-05-22T07:02:06.515Z,33.05
2023-05-22T07:04:50.812Z,36.60
2023-05-22T07:09:48.229Z,34.25
2023-05-22T07:12:15.379Z,38.35
2023-05-22T07:14:41.982Z,35.75
2023-05-22T07:17:08.864Z,33.03
2023-05-22T07:22:09.772Z,43.33
2023-05-22T07:24:38.812Z,42.22
2023-05-22T07:27:06.482Z,38.42
2023-05-22T07:29:33.980Z,35.88
2023-05-22T07:32:01.568Z,39.05
2023-05-22T07:34:30.957Z,43.30
2023-05-22T07:36:58.256Z,37.65
2023-05-22T07:39:26.338Z,39.80
2023-05-22T07:41:54.509Z,40.92
2023-05-22T07:44:21.995Z,40.83
2023-05-22T07:46:48.660Z,40.90
2023-05-22T07:49:20.003Z,44.72
2023-05-22T07:51:47.409Z,41.47
2023-05-22T07:54:15.642Z,47.53
2023-05-22T07:56:46.284Z,40.88
2023-05-22T07:59:15.291Z,43.70
2023-05-22T08:01:41.998Z,41.40
2023-05-22T08:04:08.995Z,42.90
2023-05-22T08:06:36.089Z,41.63
2023-05-22T08:09:03.389Z,45.22
2023-05-22T08:11:30.191Z,44.28
2023-05-22T08:13:58.150Z,51.45
2023-05-22T08:16:24.928Z,45.95
2023-05-22T08:18:51.730Z,45.63
2023-05-22T08:21:18.714Z,44.72
2023-05-22T08:23:45.480Z,52.47
2023-05-22T08:26:12.154Z,48.58
2023-05-22T08:28:38.788Z,48.78
2023-05-22T08:31:07.024Z,45.55
2023-05-22T08:33:33.642Z,51.95
2023-05-22T08:36:00.226Z,50.72
2023-05-22T08:38:26.959Z,44.40
2023-05-22T08:40:54.364Z,47.50
2023-05-22T08:43:21.072Z,52.70
2023-05-22T08:45:59.628Z,51.90
2023-05-22T08:48:30.014Z,45.83
2023-05-22T08:50:58.281Z,48.17
2023-05-22T08:53:27.817Z,49.63
2023-05-22T08:55:55.031Z,55.50
2023-05-22T08:58:22.191Z,50.10
2023-05-22T09:00:49.245Z,52.00
2023-05-22T09:03:16.111Z,50.28
2023-05-22T09:05:44.404Z,50.30
2023-05-22T09:08:19.752Z,55.28
2023-05-22T09:10:47.395Z,47.60
2023-05-22T09:13:24.809Z,52.42
2023-05-22T09:15:51.429Z,55.20
2023-05-22T09:18:18.027Z,59.08
2023-05-22T09:20:46.064Z,56.97
2023-05-22T09:23:13.310Z,59.40
2023-05-22T09:25:41.803Z,55.08
2023-05-22T09:28:08.612Z,58.80
2023-05-22T09:30:35.312Z,59.03
2023-05-22T09:33:02.066Z,61.00
2023-05-22T09:35:32.080Z,62.08
2023-05-22T09:38:00.170Z,64.90
2023-05-22T09:40:27.698Z,61.40
2023-05-22T09:42:54.378Z,65.10
2023-05-22T09:45:22.064Z,69.88
2023-05-22T09:47:49.110Z,65.53
2023-05-22T09:50:15.831Z,68.43
2023-05-22T09:52:44.908Z,64.18
2023-05-22T09:55:13.858Z,64.00
2023-05-22T09:57:42.335Z,62.70
2023-05-22T10:00:12.074Z,60.42
2023-05-22T10:02:43.739Z,69.00
2023-05-22T10:05:11.572Z,64.03
2023-05-22T10:07:45.549Z,61.08
2023-05-22T10:10:16.708Z,60.53
2023-05-22T10:12:47.698Z,65.63
2023-05-22T10:15:17.231Z,63.22
2023-05-22T10:17:44.566Z,63.08
2023-05-22T10:20:12.505Z,64.00
2023-05-22T10:22:39.252Z,66.82
2023-05-22T10:25:09.143Z,60.25
2023-05-22T10:27:39.661Z,60.20
2023-05-22T10:30:18.131Z,60.45
2023-05-22T10:33:09.890Z,63.90
2023-05-22T10:38:25.450Z,60.40
2023-05-22T10:40:52.474Z,64.93
2023-05-22T10:43:21.408Z,58.83
2023-05-22T10:45:48.481Z,61.72
2023-05-22T10:48:15.389Z,61.92
2023-05-22T10:50:51.346Z,58.13
2023-05-22T10:53:19.533Z,61.90
2023-05-22T10:55:49.663Z,58.30
2023-05-22T10:58:17.038Z,59.72
2023-05-22T11:00:45.147Z,63.08
2023-05-22T11:03:17.937Z,59.55
2023-05-22T11:05:52.882Z,56.58
2023-05-22T11:08:47.694Z,57.95
2023-05-22T11:11:14.402Z,58.30
2023-05-22T11:13:41.504Z,59.80
2023-05-22T11:16:10.074Z,59.47
2023-05-22T11:18:37.165Z,55.60
2023-05-22T11:21:04.457Z,56.47
2023-05-22T11:23:34.076Z,54.13
2023-05-22T11:26:17.543Z,57.42
2023-05-22T11:28:49.222Z,58.63
2023-05-22T11:31:17.802Z,57.38
2023-05-22T11:33:45.741Z,59.13
2023-05-22T11:36:12.921Z,60.15
2023-05-22T11:38:40.250Z,51.83
2023-05-22T11:41:08.760Z,57.85
2023-05-22T11:43:35.380Z,54.88
2023-05-22T11:46:06.423Z,50.83
2023-05-22T11:48:34.588Z,50.33
2023-05-22T11:51:01.499Z,52.70
2023-05-22T11:53:29.398Z,51.38
2023-05-22T11:55:56.058Z,49.70
2023-05-22T11:58:27.360Z,47.88
2023-05-22T12:00:57.964Z,48.47
2023-05-22T12:03:25.847Z,49.40
2023-05-22T12:05:54.518Z,48.08
2023-05-22T12:08:21.354Z,51.25
2023-05-22T12:10:49.147Z,48.28
2023-05-22T12:13:22.645Z,50.88
2023-05-22T12:15:49.246Z,47.40
2023-05-22T12:18:18.139Z,43.05
2023-05-22T12:20:44.970Z,46.83
2023-05-22T12:23:21.200Z,47.40
2023-05-22T12:25:47.832Z,47.00
2023-05-22T12:28:14.427Z,44.63
2023-05-22T12:30:41.925Z,40.65
2023-05-22T12:33:14.854Z,44.63
2023-05-22T12:35:41.579Z,44.35
2023-05-22T12:38:08.221Z,44.83
2023-05-22T12:40:36.205Z,42.70
2023-05-22T12:43:02.813Z,35.80
2023-05-22T12:45:29.361Z,39.00
2023-05-22T12:47:56.032Z,43.13
2023-05-22T12:50:22.756Z,39.22
2023-05-22T12:52:49.443Z,42.33
2023-05-22T12:55:16.023Z,40.50
2023-05-22T12:57:43.993Z,38.55
2023-05-22T13:00:12.025Z,39.28
2023-05-22T13:02:38.840Z,36.88
2023-05-22T13:05:06.382Z,38.22
2023-05-22T13:07:33.080Z,40.88
2023-05-22T13:09:59.741Z,39.45
2023-05-22T13:12:26.331Z,35.42
2023-05-22T13:14:54.250Z,37.25
2023-05-22T13:17:20.868Z,30.98
2023-05-22T13:19:47.462Z,37.25
2023-05-22T13:22:14.272Z,29.13
2023-05-22T13:24:41.132Z,32.92
2023-05-22T13:27:07.790Z,32.35
2023-05-22T13:29:34.538Z,34.42
2023-05-22T13:32:02.711Z,30.85
2023-05-22T13:34:29.697Z,29.98
2023-05-22T13:36:56.508Z,27.67
2023-05-22T13:39:23.232Z,30.52
2023-05-22T13:41:51.517Z,28.95
2023-05-22T13:44:18.266Z,32.67
2023-05-22T13:46:44.897Z,29.55
2023-05-22T13:49:12.990Z,27.25
2023-05-22T13:51:39.585Z,25.70
2023-05-22T13:54:06.276Z,29.33
2023-05-22T13:56:32.847Z,27.52
2023-05-22T13:58:59.565Z,25.27
2023-05-22T14:01:26.204Z,25.88
2023-05-22T14:03:52.878Z,23.83
2023-05-22T14:06:20.890Z,23.95
2023-05-22T14:08:48.425Z,27.83
2023-05-22T14:11:15.065Z,25.65
2023-05-22T14:13:42.982Z,22.73
2023-05-22T14:16:09.592Z,24.48
2023-05-22T14:18:36.166Z,22.92
2023-05-22T14:21:04.677Z,26.30
2023-05-22T14:23:32.878Z,28.45
2023-05-22T14:25:59.456Z,29.75
2023-05-22T14:28:26.077Z,27.55
2023-05-22T14:30:52.807Z,23.88
2023-05-22T14:33:19.483Z,25.52
2023-05-22T14:35:46.058Z,22.58
2023-05-22T14:38:12.640Z,22.50
2023-05-22T14:40:40.582Z,20.88
2023-05-22T14:43:07.196Z,23.08
2023-05-22T14:45:33.844Z,23.25
2023-05-22T14:48:00.478Z,24.52
2023-05-22T14:50:27.152Z,26.27
2023-05-22T14:52:53.785Z,19.13
2023-05-22T14:55:20.423Z,22.00
2023-05-22T14:57:48.384Z,22.48
2023-05-22T15:00:15.631Z,22.15
2023-05-22T15:02:42.334Z,24.33
2023-05-22T15:05:09.589Z,22.83
2023-05-22T15:07:43.962Z,18.73
2023-05-22T15:10:12.434Z,22.67
2023-05-22T15:12:39.154Z,22.38
2023-05-22T15:15:08.598Z,25.42
2023-05-22T15:17:35.327Z,22.60
2023-05-22T15:20:01.991Z,23.55
2023-05-22T15:22:28.648Z,23.05
2023-05-22T15:25:05.714Z,22.00
2023-05-22T15:27:33.260Z,20.70
2023-05-22T15:29:59.922Z,25.65
2023-05-22T15:32:27.834Z,22.17
2023-05-22T15:34:54.574Z,22.30
2023-05-22T15:37:21.142Z,22.95
2023-05-22T15:39:47.738Z,24.45
2023-05-22T15:42:14.404Z,24.38
2023-05-22T15:44:40.975Z,23.13
2023-05-22T15:47:07.681Z,20.90
2023-05-22T15:49:35.780Z,24.27
2023-05-22T15:52:02.577Z,23.60
2023-05-22T15:54:29.254Z,22.35
2023-05-22T15:56:55.858Z,24.10
2023-05-22T15:59:22.718Z,22.00
2023-05-22T16:01:49.576Z,22.20
2023-05-22T16:04:16.295Z,21.13
2023-05-22T16:06:44.373Z,22.42
2023-05-22T16:09:11.213Z,22.13
2023-05-22T16:11:37.964Z,27.75
2023-05-22T16:14:04.638Z,25.75
2023-05-22T16:16:31.326Z,23.58
2023-05-22T16:18:58.070Z,25.65
2023-05-22T16:21:24.746Z,20.60
2023-05-22T16:23:52.863Z,27.85
2023-05-22T16:26:19.569Z,24.60
2023-05-22T16:28:46.147Z,25.95
2023-05-22T16:31:12.835Z,23.20
2023-05-22T16:33:39.565Z,35.47
2023-05-22T16:36:06.948Z,31.20
2023-05-22T16:38:33.538Z,31.25
2023-05-22T16:41:01.440Z,31.88
2023-05-22T16:43:28.038Z,36.33
2023-05-22T16:45:54.684Z,26.67
2023-05-22T16:48:21.355Z,27.20
2023-05-22T16:50:47.964Z,27.27
2023-05-22T16:53:14.608Z,21.52
2023-05-22T16:55:41.625Z,30.15
2023-05-22T16:58:09.964Z,26.35
2023-05-22T17:00:36.923Z,29.17
2023-05-22T17:03:04.199Z,30.42
2023-05-22T17:05:31.038Z,25.52
2023-05-22T17:07:57.665Z,33.97
2023-05-22T17:10:24.222Z,26.10
2023-05-22T17:12:50.988Z,25.48
2023-05-22T17:15:19.044Z,26.77
2023-05-22T17:17:45.782Z,28.48
2023-05-22T17:20:12.479Z,25.48
2023-05-22T17:22:39.204Z,15.68
2023-05-22T17:25:06.494Z,10.85
2023-05-22T17:27:36.564Z,9.35
2023-05-22T17:30:04.609Z,8.25
2023-05-22T17:32:32.867Z,9.55
2023-05-22T17:34:59.795Z,10.30
2023-05-22T17:37:26.430Z,9.15
2023-05-22T17:39:53.673Z,8.20
2023-05-22T17:42:20.327Z,8.07
2023-05-22T17:45:21.042Z,10.38
2023-05-22T17:47:49.156Z,7.40
2023-05-22T17:50:16.222Z,4.05
2023-05-22T17:52:42.928Z,5.15
2023-05-22T17:55:09.887Z,4.20
2023-05-22T17:57:36.663Z,4.22
2023-05-22T18:00:04.112Z,4.60
2023-05-22T18:02:46.369Z,4.22
2023-05-22T18:05:14.420Z,4.03
2023-05-22T18:07:41.143Z,4.05
2023-05-22T18:10:08.620Z,4.82
2023-05-22T18:12:38.012Z,5.07
2023-05-22T18:15:05.867Z,3.80
2023-05-22T18:17:32.552Z,4.70
2023-05-22T18:20:00.923Z,5.40
2023-05-22T18:22:28.982Z,5.20
2023-05-22T18:27:43.684Z,4.50
2023-05-22T18:30:10.896Z,5.25
2023-05-22T18:32:37.527Z,8.00
2023-05-22T18:35:04.888Z,6.47
2023-05-22T18:37:32.896Z,5.43
2023-05-22T18:39:59.631Z,7.35
2023-05-22T18:42:26.365Z,5.35
2023-05-22T18:44:53.143Z,8.38
2023-05-22T18:47:20.021Z,6.00
2023-05-22T18:49:46.923Z,6.32
2023-05-22T18:52:13.650Z,10.55
2023-05-22T18:54:41.656Z,5.70
2023-05-22T18:57:08.507Z,9.10
2023-05-22T18:59:35.134Z,5.28
2023-05-22T19:02:01.957Z,6.03
2023-05-22T19:04:28.769Z,5.80
2023-05-22T19:06:55.652Z,5.72
2023-05-22T19:09:22.498Z,8.05
2023-05-22T19:11:50.607Z,6.47
2023-05-22T19:14:17.380Z,5.00
2023-05-22T19:16:44.242Z,4.50
2023-05-22T19:19:11.128Z,4.10
2023-05-22T19:21:38.067Z,4.07
2023-05-22T19:24:05.658Z,4.75
2023-05-22T19:26:32.572Z,3.83
2023-05-22T19:29:00.592Z,4.07
2023-05-22T19:31:27.544Z,3.90
2023-05-22T19:33:54.571Z,3.80
2023-05-22T19:36:21.279Z,4.75
2023-05-22T19:38:48.093Z,3.50
2023-05-22T19:41:17.844Z,4.03
2023-05-22T19:43:44.760Z,4.32
2023-05-22T19:46:12.746Z,5.47
2023-05-22T19:48:39.479Z,3.63
2023-05-22T19:51:06.147Z,3.58
2023-05-22T19:53:33.008Z,3.78
2023-05-22T19:55:59.780Z,4.97
2023-05-22T19:58:26.677Z,4.15
2023-05-22T20:00:53.329Z,6.30
2023-05-22T20:03:21.332Z,3.95
2023-05-22T20:05:49.928Z,3.72
2023-05-22T20:08:16.499Z,6.90
2023-05-22T20:10:43.159Z,4.18
2023-05-22T20:13:09.892Z,4.38
2023-05-22T20:15:36.510Z,3.92
2023-05-22T20:18:03.691Z,4.45
2023-05-22T20:20:31.737Z,5.57
2023-05-22T20:22:58.414Z,3.33
2023-05-22T20:25:25.077Z,4.28
2023-05-22T20:27:51.774Z,4.60
2023-05-22T20:30:18.775Z,5.13
2023-05-22T20:32:45.499Z,4.30
2023-05-22T20:35:12.965Z,4.03
2023-05-22T20:37:41.006Z,4.75
2023-05-22T20:40:08.638Z,3.75
2023-05-22T20:42:35.677Z,4.60
2023-05-22T20:45:02.449Z,4.13
2023-05-22T20:47:29.119Z,5.00
2023-05-22T20:49:55.762Z,6.53
2023-05-22T20:52:22.561Z,4.57
2023-05-22T20:54:50.590Z,5.28
2023-05-22T20:57:17.335Z,4.47
2023-05-22T20:59:43.982Z,4.28
2023-05-22T21:02:10.671Z,4.43
2023-05-22T21:04:37.346Z,6.10
2023-05-22T21:07:04.208Z,4.38
2023-05-22T21:09:30.867Z,4.63
2023-05-22T21:11:58.880Z,4.20
2023-05-22T21:14:25.616Z,5.60
2023-05-22T21:16:52.278Z,4.75
2023-05-22T21:19:19.092Z,3.85
2023-05-22T21:21:45.787Z,4.20
2023-05-22T21:24:12.479Z,4.40
2023-05-22T21:26:40.144Z,4.75
2023-05-22T21:29:08.272Z,4.50
2023-05-22T21:31:35.750Z,4.38
2023-05-22T21:34:02.762Z,5.30
2023-05-22T21:36:29.450Z,5.72
2023-05-22T21:38:56.206Z,5.60
2023-05-22T21:41:22.857Z,4.97
2023-05-22T21:43:49.491Z,4.75
2023-05-22T21:46:17.578Z,5.05
2023-05-22T21:48:44.480Z,7.10
2023-05-22T21:51:11.065Z,6.38
2023-05-22T21:53:39.777Z,4.85
2023-05-22T21:56:06.580Z,4.93
2023-05-22T21:58:33.304Z,5.05
2023-05-22T22:00:59.966Z,5.38
2023-05-22T22:03:28.101Z,5.95
2023-05-22T22:05:54.802Z,6.20
2023-05-22T22:08:21.406Z,5.57
2023-05-22T22:10:48.027Z,5.88
2023-05-22T22:13:14.636Z,5.93
2023-05-22T22:15:41.463Z,7.88
2023-05-22T22:18:08.159Z,6.05
2023-05-22T22:20:44.250Z,6.40
2023-05-22T22:23:11.886Z,6.95
2023-05-22T22:25:38.564Z,7.53
2023-05-22T22:28:05.210Z,7.88
2023-05-22T22:30:32.027Z,6.65
2023-05-22T22:32:58.834Z,6.75
2023-05-22T22:35:25.526Z,7.05
2023-05-22T22:37:53.536Z,7.60
2023-05-22T22:40:20.178Z,6.97
2023-05-22T22:42:46.808Z,6.40
2023-05-22T22:45:13.627Z,6.82
2023-05-22T22:47:40.387Z,8.85
2023-05-22T22:50:07.556Z,7.22
2023-05-22T22:52:34.160Z,7.85
2023-05-22T22:55:03.426Z,7.05
2023-05-22T22:57:30.060Z,8.10
2023-05-22T22:59:57.162Z,8.50
2023-05-22T23:02:23.834Z,9.45
2023-05-22T23:04:50.585Z,9.63
2023-05-22T23:07:17.344Z,10.77
2023-05-22T23:09:43.962Z,10.88
2023-05-22T23:12:11.942Z,10.80
2023-05-22T23:14:38.578Z,10.88
2023-05-22T23:17:05.304Z,11.32
2023-05-22T23:19:32.108Z,10.88
2023-05-22T23:21:58.891Z,12.40
2023-05-22T23:24:25.517Z,13.57
2023-05-22T23:26:52.146Z,13.35
2023-05-22T23:29:20.282Z,17.17
2023-05-22T23:31:46.961Z,15.02
2023-05-22T23:34:13.689Z,15.00
2023-05-22T23:36:40.315Z,24.40
2023-05-22T23:39:07.419Z,17.63
2023-05-22T23:41:34.394Z,16.40
2023-05-22T23:44:01.220Z,18.20
2023-05-22T23:46:29.192Z,17.25
2023-05-22T23:48:55.942Z,16.42
2023-05-22T23:51:22.568Z,20.92
2023-05-22T23:53:49.360Z,15.98
2023-05-22T23:56:16.077Z,20.98
2023-05-22T23:58:42.697Z,19.05
